sensor_id;sensor_type;location;lat;lon;timestamp;temperature;humidity
54158;DHT22;40065;49.894;10.358;2024-02-16T00:02:45;9.80;99.90
54158;DHT22;40065;49.894;10.358;2024-02-16T00:07:47;9.80;99.90
54158;DHT22;40065;49.894;10.358;2024-02-16T00:12:49;9.90;99.90
54158;DHT22;40065;49.894;10.358;2024-02-16T00:17:51;9.80;99.90
54158;DHT22;40065;49.894;10.358;2024-02-16T00:22:53;9.80;99.90
54158;DHT22;40065;49.894;10.358;2024-02-16T00:27:55;9.90;99.90
54158;DHT22;40065;49.894;10.358;2024-02-16T00:32:56;9.90;99.90
54158;DHT22;40065;49.894;10.358;2024-02-16T00:38:01;9.90;99.90
54158;DHT22;40065;49.894;10.358;2024-02-16T00:43:03;10.00;99.90
54158;DHT22;40065;49.894;10.358;2024-02-16T00:48:06;10.00;99.90
54158;DHT22;40065;49.894;10.358;2024-02-16T00:53:09;10.10;99.90
54158;DHT22;40065;49.894;10.358;2024-02-16T00:58:11;10.10;99.90
54158;DHT22;40065;49.894;10.358;2024-02-16T01:03:13;10.10;99.90
54158;DHT22;40065;49.894;10.358;2024-02-16T01:08:14;10.00;99.90
54158;DHT22;40065;49.894;10.358;2024-02-16T01:13:16;10.00;99.90
54158;DHT22;40065;49.894;10.358;2024-02-16T01:18:18;10.10;99.90
54158;DHT22;40065;49.894;10.358;2024-02-16T01:23:20;10.10;99.90
54158;DHT22;40065;49.894;10.358;2024-02-16T01:28:22;10.30;99.90
54158;DHT22;40065;49.894;10.358;2024-02-16T01:33:24;10.20;99.90
54158;DHT22;40065;49.894;10.358;2024-02-16T01:38:26;9.90;99.90
54158;DHT22;40065;49.894;10.358;2024-02-16T01:43:28;9.70;99.90
54158;DHT22;40065;49.894;10.358;2024-02-16T01:48:30;9.70;99.90
54158;DHT22;40065;49.894;10.358;2024-02-16T01:53:32;9.80;99.90
54158;DHT22;40065;49.894;10.358;2024-02-16T01:58:34;9.70;99.90
54158;DHT22;40065;49.894;10.358;2024-02-16T02:03:36;9.60;99.90
54158;DHT22;40065;49.894;10.358;2024-02-16T02:08:38;9.60;99.90
54158;DHT22;40065;49.894;10.358;2024-02-16T02:13:39;9.70;99.90
54158;DHT22;40065;49.894;10.358;2024-02-16T02:18:43;9.80;99.90
54158;DHT22;40065;49.894;10.358;2024-02-16T02:23:45;9.70;99.90
54158;DHT22;40065;49.894;10.358;2024-02-16T02:28:47;9.60;99.90
54158;DHT22;40065;49.894;10.358;2024-02-16T02:33:49;9.50;99.90
54158;DHT22;40065;49.894;10.358;2024-02-16T02:38:51;9.50;99.90
54158;DHT22;40065;49.894;10.358;2024-02-16T02:43:53;9.60;99.90
54158;DHT22;40065;49.894;10.358;2024-02-16T02:48:55;9.60;99.90
54158;DHT22;40065;49.894;10.358;2024-02-16T02:53:57;9.60;99.90
54158;DHT22;40065;49.894;10.358;2024-02-16T02:58:59;9.70;99.90
54158;DHT22;40065;49.894;10.358;2024-02-16T03:04:01;9.50;99.90
54158;DHT22;40065;49.894;10.358;2024-02-16T03:09:03;9.40;99.90
54158;DHT22;40065;49.894;10.358;2024-02-16T03:14:05;9.50;99.90
54158;DHT22;40065;49.894;10.358;2024-02-16T03:19:08;9.40;99.90
54158;DHT22;40065;49.894;10.358;2024-02-16T03:24:12;9.30;99.90
54158;DHT22;40065;49.894;10.358;2024-02-16T03:29:15;9.30;99.90
54158;DHT22;40065;49.894;10.358;2024-02-16T03:34:17;9.40;99.90
54158;DHT22;40065;49.894;10.358;2024-02-16T03:39:19;9.30;99.90
54158;DHT22;40065;49.894;10.358;2024-02-16T03:44:22;9.20;99.90
54158;DHT22;40065;49.894;10.358;2024-02-16T03:49:25;9.10;99.90
54158;DHT22;40065;49.894;10.358;2024-02-16T03:54:29;9.00;99.90
54158;DHT22;40065;49.894;10.358;2024-02-16T03:59:32;9.00;99.90
54158;DHT22;40065;49.894;10.358;2024-02-16T04:04:34;8.80;99.90
54158;DHT22;40065;49.894;10.358;2024-02-16T04:09:36;8.90;99.90
54158;DHT22;40065;49.894;10.358;2024-02-16T04:14:38;8.80;99.90
54158;DHT22;40065;49.894;10.358;2024-02-16T04:19:40;8.80;99.90
54158;DHT22;40065;49.894;10.358;2024-02-16T04:24:42;8.80;99.90
54158;DHT22;40065;49.894;10.358;2024-02-16T04:29:43;8.90;99.90
54158;DHT22;40065;49.894;10.358;2024-02-16T04:34:45;8.90;99.90
54158;DHT22;40065;49.894;10.358;2024-02-16T04:39:48;8.90;99.90
54158;DHT22;40065;49.894;10.358;2024-02-16T04:44:50;9.00;99.90
54158;DHT22;40065;49.894;10.358;2024-02-16T04:49:52;8.90;99.90
54158;DHT22;40065;49.894;10.358;2024-02-16T04:54:54;8.80;99.90
54158;DHT22;40065;49.894;10.358;2024-02-16T04:59:56;8.60;99.90
54158;DHT22;40065;49.894;10.358;2024-02-16T05:04:57;8.50;99.90
54158;DHT22;40065;49.894;10.358;2024-02-16T05:10:08;8.50;99.90
54158;DHT22;40065;49.894;10.358;2024-02-16T05:15:10;8.40;99.90
54158;DHT22;40065;49.894;10.358;2024-02-16T05:20:15;8.40;99.90
54158;DHT22;40065;49.894;10.358;2024-02-16T05:25:18;8.40;99.90
54158;DHT22;40065;49.894;10.358;2024-02-16T05:30:20;8.50;99.90
54158;DHT22;40065;49.894;10.358;2024-02-16T05:35:22;8.50;99.90
54158;DHT22;40065;49.894;10.358;2024-02-16T05:40:24;8.60;99.90
54158;DHT22;40065;49.894;10.358;2024-02-16T05:45:29;8.70;99.90
54158;DHT22;40065;49.894;10.358;2024-02-16T05:50:31;8.60;99.90
54158;DHT22;40065;49.894;10.358;2024-02-16T05:55:33;8.50;99.90
54158;DHT22;40065;49.894;10.358;2024-02-16T06:00:36;8.40;99.90
54158;DHT22;40065;49.894;10.358;2024-02-16T06:05:37;8.50;99.90
54158;DHT22;40065;49.894;10.358;2024-02-16T06:10:40;8.70;99.90
54158;DHT22;40065;49.894;10.358;2024-02-16T06:15:43;8.90;99.90
54158;DHT22;40065;49.894;10.358;2024-02-16T06:20:45;9.00;99.90
54158;DHT22;40065;49.894;10.358;2024-02-16T06:25:47;9.10;99.90
54158;DHT22;40065;49.894;10.358;2024-02-16T06:30:48;9.20;99.90
54158;DHT22;40065;49.894;10.358;2024-02-16T06:35:50;9.10;99.90
54158;DHT22;40065;49.894;10.358;2024-02-16T06:40:53;9.10;99.90
54158;DHT22;40065;49.894;10.358;2024-02-16T06:45:54;9.00;99.90
54158;DHT22;40065;49.894;10.358;2024-02-16T06:50:58;9.00;99.90
54158;DHT22;40065;49.894;10.358;2024-02-16T06:56:00;8.90;99.90
54158;DHT22;40065;49.894;10.358;2024-02-16T07:01:02;8.90;99.90
54158;DHT22;40065;49.894;10.358;2024-02-16T07:06:06;8.80;99.90
54158;DHT22;40065;49.894;10.358;2024-02-16T07:11:11;8.80;99.90
54158;DHT22;40065;49.894;10.358;2024-02-16T07:16:14;8.80;99.90
54158;DHT22;40065;49.894;10.358;2024-02-16T07:21:16;9.20;99.90
54158;DHT22;40065;49.894;10.358;2024-02-16T07:26:20;9.60;99.90
54158;DHT22;40065;49.894;10.358;2024-02-16T07:31:22;9.80;99.90
54158;DHT22;40065;49.894;10.358;2024-02-16T07:36:24;9.80;99.90
54158;DHT22;40065;49.894;10.358;2024-02-16T07:41:26;9.90;99.90
54158;DHT22;40065;49.894;10.358;2024-02-16T07:46:29;10.00;99.90
54158;DHT22;40065;49.894;10.358;2024-02-16T07:51:35;10.60;99.90
54158;DHT22;40065;49.894;10.358;2024-02-16T07:56:37;11.00;99.90
54158;DHT22;40065;49.894;10.358;2024-02-16T08:01:42;11.40;99.90
54158;DHT22;40065;49.894;10.358;2024-02-16T08:06:46;11.10;99.90
54158;DHT22;40065;49.894;10.358;2024-02-16T08:11:48;11.30;99.90
54158;DHT22;40065;49.894;10.358;2024-02-16T08:16:50;11.20;99.90
54158;DHT22;40065;49.894;10.358;2024-02-16T08:22:05;11.80;99.90
54158;DHT22;40065;49.894;10.358;2024-02-16T08:27:08;11.80;99.90
54158;DHT22;40065;49.894;10.358;2024-02-16T08:32:10;14.20;99.90
54158;DHT22;40065;49.894;10.358;2024-02-16T08:37:12;16.10;99.90
54158;DHT22;40065;49.894;10.358;2024-02-16T08:42:14;16.80;99.90
54158;DHT22;40065;49.894;10.358;2024-02-16T08:47:16;17.20;99.90
54158;DHT22;40065;49.894;10.358;2024-02-16T08:52:18;15.40;99.90
54158;DHT22;40065;49.894;10.358;2024-02-16T08:57:20;14.50;99.90
54158;DHT22;40065;49.894;10.358;2024-02-16T09:02:21;13.30;99.90
54158;DHT22;40065;49.894;10.358;2024-02-16T09:07:23;13.30;99.90
54158;DHT22;40065;49.894;10.358;2024-02-16T09:12:27;13.60;99.90
54158;DHT22;40065;49.894;10.358;2024-02-16T09:17:29;14.10;99.90
54158;DHT22;40065;49.894;10.358;2024-02-16T09:22:31;14.40;99.90
54158;DHT22;40065;49.894;10.358;2024-02-16T09:27:35;15.60;99.90
54158;DHT22;40065;49.894;10.358;2024-02-16T09:32:42;16.00;99.90
54158;DHT22;40065;49.894;10.358;2024-02-16T09:37:44;15.10;99.90
54158;DHT22;40065;49.894;10.358;2024-02-16T09:42:48;15.70;99.90
54158;DHT22;40065;49.894;10.358;2024-02-16T09:47:55;15.50;99.90
54158;DHT22;40065;49.894;10.358;2024-02-16T09:53:05;16.60;99.90
54158;DHT22;40065;49.894;10.358;2024-02-16T09:58:08;17.70;99.90
54158;DHT22;40065;49.894;10.358;2024-02-16T10:03:24;17.10;99.90
54158;DHT22;40065;49.894;10.358;2024-02-16T10:08:27;16.90;99.90
54158;DHT22;40065;49.894;10.358;2024-02-16T10:13:30;16.80;99.90
54158;DHT22;40065;49.894;10.358;2024-02-16T10:18:32;16.50;99.90
54158;DHT22;40065;49.894;10.358;2024-02-16T10:23:34;14.90;99.90
54158;DHT22;40065;49.894;10.358;2024-02-16T10:28:44;14.70;99.90
54158;DHT22;40065;49.894;10.358;2024-02-16T10:33:47;15.00;99.90
54158;DHT22;40065;49.894;10.358;2024-02-16T10:38:51;15.30;99.90
54158;DHT22;40065;49.894;10.358;2024-02-16T10:43:54;15.60;99.90
54158;DHT22;40065;49.894;10.358;2024-02-16T10:48:56;15.20;99.90
54158;DHT22;40065;49.894;10.358;2024-02-16T10:54:00;16.00;99.90
54158;DHT22;40065;49.894;10.358;2024-02-16T10:59:04;15.90;99.90
54158;DHT22;40065;49.894;10.358;2024-02-16T11:04:08;15.70;99.90
54158;DHT22;40065;49.894;10.358;2024-02-16T11:09:11;16.00;99.90
54158;DHT22;40065;49.894;10.358;2024-02-16T11:14:15;16.20;99.90
54158;DHT22;40065;49.894;10.358;2024-02-16T11:19:18;16.00;99.90
54158;DHT22;40065;49.894;10.358;2024-02-16T11:24:29;15.70;99.90
54158;DHT22;40065;49.894;10.358;2024-02-16T11:29:33;15.90;99.90
54158;DHT22;40065;49.894;10.358;2024-02-16T11:34:38;15.50;99.90
54158;DHT22;40065;49.894;10.358;2024-02-16T11:39:40;15.50;99.90
54158;DHT22;40065;49.894;10.358;2024-02-16T11:44:54;15.70;99.90
54158;DHT22;40065;49.894;10.358;2024-02-16T11:50:04;15.70;99.90
54158;DHT22;40065;49.894;10.358;2024-02-16T11:55:08;15.90;99.90
54158;DHT22;40065;49.894;10.358;2024-02-16T12:00:11;16.40;99.90
54158;DHT22;40065;49.894;10.358;2024-02-16T12:05:17;16.50;99.90
54158;DHT22;40065;49.894;10.358;2024-02-16T12:10:19;16.70;99.90
54158;DHT22;40065;49.894;10.358;2024-02-16T12:15:22;16.40;99.90
54158;DHT22;40065;49.894;10.358;2024-02-16T12:20:24;17.50;99.90
54158;DHT22;40065;49.894;10.358;2024-02-16T12:25:26;17.60;99.90
54158;DHT22;40065;49.894;10.358;2024-02-16T12:30:31;18.30;99.90
54158;DHT22;40065;49.894;10.358;2024-02-16T12:35:33;18.80;98.60
54158;DHT22;40065;49.894;10.358;2024-02-16T12:40:36;19.80;97.70
54158;DHT22;40065;49.894;10.358;2024-02-16T12:45:38;19.70;96.90
54158;DHT22;40065;49.894;10.358;2024-02-16T12:50:40;20.00;97.20
54158;DHT22;40065;49.894;10.358;2024-02-16T12:55:43;20.90;95.90
54158;DHT22;40065;49.894;10.358;2024-02-16T13:00:45;21.80;94.50
54158;DHT22;40065;49.894;10.358;2024-02-16T13:05:47;21.30;95.20
54158;DHT22;40065;49.894;10.358;2024-02-16T13:10:49;21.30;95.10
54158;DHT22;40065;49.894;10.358;2024-02-16T13:15:51;19.70;97.60
54158;DHT22;40065;49.894;10.358;2024-02-16T13:20:59;19.10;98.40
54158;DHT22;40065;49.894;10.358;2024-02-16T13:26:03;18.70;98.70
54158;DHT22;40065;49.894;10.358;2024-02-16T13:31:07;18.60;99.90
54158;DHT22;40065;49.894;10.358;2024-02-16T13:36:12;18.50;99.70
54158;DHT22;40065;49.894;10.358;2024-02-16T13:41:13;19.00;98.90
54158;DHT22;40065;49.894;10.358;2024-02-16T13:46:20;18.20;99.80
54158;DHT22;40065;49.894;10.358;2024-02-16T13:51:23;17.80;99.90
54158;DHT22;40065;49.894;10.358;2024-02-16T13:56:25;17.70;99.90
54158;DHT22;40065;49.894;10.358;2024-02-16T14:01:28;17.80;99.90
54158;DHT22;40065;49.894;10.358;2024-02-16T14:06:30;18.70;99.90
54158;DHT22;40065;49.894;10.358;2024-02-16T14:11:33;18.10;99.90
54158;DHT22;40065;49.894;10.358;2024-02-16T14:16:36;17.70;99.90
54158;DHT22;40065;49.894;10.358;2024-02-16T14:21:39;17.60;99.90
54158;DHT22;40065;49.894;10.358;2024-02-16T14:26:41;17.60;99.90
54158;DHT22;40065;49.894;10.358;2024-02-16T14:31:44;17.50;99.90
54158;DHT22;40065;49.894;10.358;2024-02-16T14:36:47;17.40;99.90
54158;DHT22;40065;49.894;10.358;2024-02-16T14:41:49;17.10;99.90
54158;DHT22;40065;49.894;10.358;2024-02-16T14:46:51;16.90;99.90
54158;DHT22;40065;49.894;10.358;2024-02-16T14:51:53;17.00;99.90
54158;DHT22;40065;49.894;10.358;2024-02-16T14:56:57;17.10;99.90
54158;DHT22;40065;49.894;10.358;2024-02-16T15:01:59;17.10;99.90
54158;DHT22;40065;49.894;10.358;2024-02-16T15:07:02;17.20;99.90
54158;DHT22;40065;49.894;10.358;2024-02-16T15:12:06;17.00;99.90
54158;DHT22;40065;49.894;10.358;2024-02-16T15:17:08;16.80;99.90
54158;DHT22;40065;49.894;10.358;2024-02-16T15:22:10;16.60;99.90
54158;DHT22;40065;49.894;10.358;2024-02-16T15:27:12;16.50;99.90
54158;DHT22;40065;49.894;10.358;2024-02-16T15:32:14;16.40;99.90
54158;DHT22;40065;49.894;10.358;2024-02-16T15:37:16;16.20;99.90
54158;DHT22;40065;49.894;10.358;2024-02-16T15:42:18;16.10;99.90
54158;DHT22;40065;49.894;10.358;2024-02-16T15:47:20;15.90;99.90
54158;DHT22;40065;49.894;10.358;2024-02-16T15:52:22;15.70;99.90
54158;DHT22;40065;49.894;10.358;2024-02-16T15:57:24;15.60;99.90
54158;DHT22;40065;49.894;10.358;2024-02-16T16:02:26;15.40;99.90
54158;DHT22;40065;49.894;10.358;2024-02-16T16:07:28;15.30;99.90
54158;DHT22;40065;49.894;10.358;2024-02-16T16:12:30;15.20;99.90
54158;DHT22;40065;49.894;10.358;2024-02-16T16:17:32;15.10;99.90
54158;DHT22;40065;49.894;10.358;2024-02-16T16:22:36;15.00;99.90
54158;DHT22;40065;49.894;10.358;2024-02-16T16:27:38;14.90;99.90
54158;DHT22;40065;49.894;10.358;2024-02-16T16:32:40;14.80;99.90
54158;DHT22;40065;49.894;10.358;2024-02-16T16:37:42;14.50;99.90
54158;DHT22;40065;49.894;10.358;2024-02-16T16:42:44;14.50;99.90
54158;DHT22;40065;49.894;10.358;2024-02-16T16:47:46;14.50;99.90
54158;DHT22;40065;49.894;10.358;2024-02-16T16:52:48;14.30;99.90
54158;DHT22;40065;49.894;10.358;2024-02-16T16:57:51;14.30;99.90
54158;DHT22;40065;49.894;10.358;2024-02-16T17:02:53;14.10;99.90
54158;DHT22;40065;49.894;10.358;2024-02-16T17:07:55;14.20;99.90
54158;DHT22;40065;49.894;10.358;2024-02-16T17:12:57;14.10;99.90
54158;DHT22;40065;49.894;10.358;2024-02-16T17:18:00;14.10;99.90
54158;DHT22;40065;49.894;10.358;2024-02-16T17:23:02;14.00;99.90
54158;DHT22;40065;49.894;10.358;2024-02-16T17:28:05;14.00;99.90
54158;DHT22;40065;49.894;10.358;2024-02-16T17:33:08;14.00;99.90
54158;DHT22;40065;49.894;10.358;2024-02-16T17:38:10;14.00;99.90
54158;DHT22;40065;49.894;10.358;2024-02-16T17:43:12;14.00;99.90
54158;DHT22;40065;49.894;10.358;2024-02-16T17:48:15;13.90;99.90
54158;DHT22;40065;49.894;10.358;2024-02-16T17:53:17;13.80;99.90
54158;DHT22;40065;49.894;10.358;2024-02-16T17:58:19;13.90;99.90
54158;DHT22;40065;49.894;10.358;2024-02-16T18:03:21;13.90;99.90
54158;DHT22;40065;49.894;10.358;2024-02-16T18:08:23;13.90;99.90
54158;DHT22;40065;49.894;10.358;2024-02-16T18:13:29;13.80;99.90
54158;DHT22;40065;49.894;10.358;2024-02-16T18:18:31;13.80;99.90
54158;DHT22;40065;49.894;10.358;2024-02-16T18:23:33;13.80;99.90
54158;DHT22;40065;49.894;10.358;2024-02-16T18:28:35;13.80;99.90
54158;DHT22;40065;49.894;10.358;2024-02-16T18:33:46;13.80;99.90
54158;DHT22;40065;49.894;10.358;2024-02-16T18:38:48;13.70;99.90
54158;DHT22;40065;49.894;10.358;2024-02-16T18:43:50;13.60;99.90
54158;DHT22;40065;49.894;10.358;2024-02-16T18:48:52;13.50;99.90
54158;DHT22;40065;49.894;10.358;2024-02-16T18:53:54;13.50;99.90
54158;DHT22;40065;49.894;10.358;2024-02-16T18:58:55;13.40;99.90
54158;DHT22;40065;49.894;10.358;2024-02-16T19:03:59;13.30;99.90
54158;DHT22;40065;49.894;10.358;2024-02-16T19:09:01;13.20;99.90
54158;DHT22;40065;49.894;10.358;2024-02-16T19:14:04;13.10;99.90
54158;DHT22;40065;49.894;10.358;2024-02-16T19:19:06;13.10;99.90
54158;DHT22;40065;49.894;10.358;2024-02-16T19:24:09;13.00;99.90
54158;DHT22;40065;49.894;10.358;2024-02-16T19:29:11;12.90;99.90
54158;DHT22;40065;49.894;10.358;2024-02-16T19:34:13;12.80;99.90
54158;DHT22;40065;49.894;10.358;2024-02-16T19:39:15;12.80;99.90
54158;DHT22;40065;49.894;10.358;2024-02-16T19:44:17;12.70;99.90
54158;DHT22;40065;49.894;10.358;2024-02-16T19:49:23;12.50;99.90
54158;DHT22;40065;49.894;10.358;2024-02-16T19:54:25;12.60;99.90
54158;DHT22;40065;49.894;10.358;2024-02-16T19:59:27;12.50;99.90
54158;DHT22;40065;49.894;10.358;2024-02-16T20:04:29;12.50;99.90
54158;DHT22;40065;49.894;10.358;2024-02-16T20:09:31;12.40;99.90
54158;DHT22;40065;49.894;10.358;2024-02-16T20:14:32;12.40;99.90
54158;DHT22;40065;49.894;10.358;2024-02-16T20:19:35;12.30;99.90
54158;DHT22;40065;49.894;10.358;2024-02-16T20:24:38;12.30;99.90
54158;DHT22;40065;49.894;10.358;2024-02-16T20:29:40;12.20;99.90
54158;DHT22;40065;49.894;10.358;2024-02-16T20:34:41;12.20;99.90
54158;DHT22;40065;49.894;10.358;2024-02-16T20:39:43;12.10;99.90
54158;DHT22;40065;49.894;10.358;2024-02-16T20:44:45;12.10;99.90
54158;DHT22;40065;49.894;10.358;2024-02-16T20:49:47;12.10;99.90
54158;DHT22;40065;49.894;10.358;2024-02-16T20:54:49;12.10;99.90
54158;DHT22;40065;49.894;10.358;2024-02-16T20:59:51;12.10;99.90
54158;DHT22;40065;49.894;10.358;2024-02-16T21:04:53;12.10;99.90
54158;DHT22;40065;49.894;10.358;2024-02-16T21:09:54;12.00;99.90
54158;DHT22;40065;49.894;10.358;2024-02-16T21:14:57;12.00;99.90
54158;DHT22;40065;49.894;10.358;2024-02-16T21:19:59;11.90;99.90
54158;DHT22;40065;49.894;10.358;2024-02-16T21:25:02;11.90;99.90
54158;DHT22;40065;49.894;10.358;2024-02-16T21:30:07;11.90;99.90
54158;DHT22;40065;49.894;10.358;2024-02-16T21:35:09;11.90;99.90
54158;DHT22;40065;49.894;10.358;2024-02-16T21:40:12;11.80;99.90
54158;DHT22;40065;49.894;10.358;2024-02-16T21:45:14;11.70;99.90
54158;DHT22;40065;49.894;10.358;2024-02-16T21:50:18;11.70;99.90
54158;DHT22;40065;49.894;10.358;2024-02-16T21:55:20;11.70;99.90
54158;DHT22;40065;49.894;10.358;2024-02-16T22:00:22;11.70;99.90
54158;DHT22;40065;49.894;10.358;2024-02-16T22:05:25;11.70;99.90
54158;DHT22;40065;49.894;10.358;2024-02-16T22:10:27;11.70;99.90
54158;DHT22;40065;49.894;10.358;2024-02-16T22:15:29;11.70;99.90
54158;DHT22;40065;49.894;10.358;2024-02-16T22:20:31;11.70;99.90
54158;DHT22;40065;49.894;10.358;2024-02-16T22:25:33;11.70;99.90
54158;DHT22;40065;49.894;10.358;2024-02-16T22:30:38;11.70;99.90
54158;DHT22;40065;49.894;10.358;2024-02-16T22:35:40;11.70;99.90
54158;DHT22;40065;49.894;10.358;2024-02-16T22:40:45;11.60;99.90
54158;DHT22;40065;49.894;10.358;2024-02-16T22:45:52;11.60;99.90
54158;DHT22;40065;49.894;10.358;2024-02-16T22:50:56;11.60;99.90
54158;DHT22;40065;49.894;10.358;2024-02-16T22:55:58;11.60;99.90
54158;DHT22;40065;49.894;10.358;2024-02-16T23:01:01;11.60;99.90
54158;DHT22;40065;49.894;10.358;2024-02-16T23:06:03;11.60;99.90
54158;DHT22;40065;49.894;10.358;2024-02-16T23:11:05;11.50;99.90
54158;DHT22;40065;49.894;10.358;2024-02-16T23:16:07;11.50;99.90
54158;DHT22;40065;49.894;10.358;2024-02-16T23:21:11;11.50;99.90
54158;DHT22;40065;49.894;10.358;2024-02-16T23:26:13;11.40;99.90
54158;DHT22;40065;49.894;10.358;2024-02-16T23:31:15;11.50;99.90
54158;DHT22;40065;49.894;10.358;2024-02-16T23:36:16;11.50;99.90
54158;DHT22;40065;49.894;10.358;2024-02-16T23:41:23;11.50;99.90
54158;DHT22;40065;49.894;10.358;2024-02-16T23:46:26;11.50;99.90
54158;DHT22;40065;49.894;10.358;2024-02-16T23:51:29;11.50;99.90
54158;DHT22;40065;49.894;10.358;2024-02-16T23:56:31;11.60;99.90
